createdAt,value
2023-11-27T00:01:30.352Z,14.13
2023-11-27T00:03:59.766Z,15.18
2023-11-27T00:06:27.688Z,15.37
2023-11-27T00:08:55.567Z,15.65
2023-11-27T00:11:23.368Z,14.63
2023-11-27T00:13:51.267Z,13.25
2023-11-27T00:16:19.248Z,15.13
2023-11-27T00:18:48.043Z,12.93
2023-11-27T00:21:17.381Z,13.80
2023-11-27T00:23:45.229Z,8.95
2023-11-27T00:26:13.405Z,12.27
2023-11-27T00:28:48.111Z,14.52
2023-11-27T00:31:15.969Z,14.10
2023-11-27T00:33:43.996Z,14.75
2023-11-27T00:36:13.872Z,14.10
2023-11-27T00:38:43.304Z,15.80
2023-11-27T00:41:15.540Z,12.07
2023-11-27T00:43:44.055Z,12.02
2023-11-27T00:46:12.168Z,13.40
2023-11-27T00:48:40.076Z,10.50
2023-11-27T00:51:08.536Z,11.15
2023-11-27T00:53:36.357Z,12.80
2023-11-27T00:56:06.102Z,14.05
2023-11-27T00:58:34.016Z,12.45
2023-11-27T01:01:01.906Z,12.60
2023-11-27T01:03:29.865Z,14.27
2023-11-27T01:05:58.464Z,8.00
2023-11-27T01:08:26.385Z,13.45
2023-11-27T01:10:54.225Z,14.00
2023-11-27T01:13:23.499Z,10.55
2023-11-27T01:15:51.351Z,11.60
2023-11-27T01:18:19.185Z,10.10
2023-11-27T01:20:47.152Z,11.48
2023-11-27T01:23:15.675Z,12.70
2023-11-27T01:25:43.435Z,11.63
2023-11-27T01:28:12.086Z,10.20
2023-11-27T01:30:41.647Z,11.43
2023-11-27T01:33:09.578Z,12.68
2023-11-27T01:35:37.450Z,10.80
2023-11-27T01:38:05.358Z,8.55
2023-11-27T01:40:33.208Z,10.45
2023-11-27T01:43:01.404Z,10.75
2023-11-27T01:45:32.248Z,7.15
2023-11-27T01:48:01.506Z,6.47
2023-11-27T01:50:29.657Z,9.82
2023-11-27T01:52:57.630Z,6.78
2023-11-27T01:55:27.761Z,10.05
2023-11-27T01:57:56.165Z,8.57
2023-11-27T02:00:25.044Z,8.68
2023-11-27T02:02:53.392Z,6.13
2023-11-27T02:05:22.965Z,6.25
2023-11-27T02:07:50.973Z,8.65
2023-11-27T02:10:19.765Z,8.95
2023-11-27T02:12:47.655Z,9.30
2023-11-27T02:15:15.468Z,7.57
2023-11-27T02:17:43.823Z,9.02
2023-11-27T02:20:12.647Z,9.38
2023-11-27T02:22:41.886Z,8.02
2023-11-27T02:25:11.276Z,8.73
2023-11-27T02:27:40.526Z,7.18
2023-11-27T02:30:09.267Z,8.60
2023-11-27T02:32:37.374Z,8.52
2023-11-27T02:35:05.870Z,6.28
2023-11-27T02:37:33.815Z,8.38
2023-11-27T02:40:02.173Z,8.00
2023-11-27T02:42:31.380Z,8.50
2023-11-27T02:44:59.228Z,7.50
2023-11-27T02:47:27.796Z,8.43
2023-11-27T02:49:55.900Z,6.53
2023-11-27T02:52:23.767Z,7.40
2023-11-27T02:54:54.359Z,6.88
2023-11-27T02:57:22.216Z,7.38
2023-11-27T02:59:51.816Z,7.93
2023-11-27T03:02:19.770Z,7.47
2023-11-27T03:04:47.869Z,6.50
2023-11-27T03:07:16.018Z,7.55
2023-11-27T03:09:44.608Z,8.50
2023-11-27T03:12:12.550Z,8.77
2023-11-27T03:14:40.445Z,8.52
2023-11-27T03:17:10.675Z,7.63
2023-11-27T03:19:47.240Z,6.13
2023-11-27T03:22:16.747Z,7.40
2023-11-27T03:24:44.649Z,8.15
2023-11-27T03:27:12.498Z,6.47
2023-11-27T03:29:40.526Z,9.10
2023-11-27T03:32:10.141Z,8.07
2023-11-27T03:34:38.025Z,8.55
2023-11-27T03:37:06.042Z,7.70
2023-11-27T03:39:33.902Z,7.60
2023-11-27T03:42:02.305Z,8.63
2023-11-27T03:44:30.170Z,8.02
2023-11-27T03:46:57.979Z,5.75
2023-11-27T03:49:27.392Z,8.40
2023-11-27T03:51:55.272Z,7.22
2023-11-27T03:54:24.193Z,8.07
2023-11-27T03:56:52.052Z,8.32
2023-11-27T03:59:20.234Z,6.70
2023-11-27T04:01:48.235Z,6.90
2023-11-27T04:04:16.258Z,7.50
2023-11-27T04:06:46.556Z,7.55
2023-11-27T04:09:14.618Z,7.85
2023-11-27T04:11:43.290Z,6.03
2023-11-27T04:14:12.069Z,7.45
2023-11-27T04:16:40.025Z,6.90
2023-11-27T04:19:07.972Z,5.78
2023-11-27T04:21:35.840Z,6.15
2023-11-27T04:24:05.560Z,6.22
2023-11-27T04:26:33.350Z,6.40
2023-11-27T04:29:01.207Z,5.38
2023-11-27T04:31:29.737Z,6.63
2023-11-27T04:33:57.716Z,5.03
2023-11-27T04:36:25.602Z,5.68
2023-11-27T04:38:53.433Z,5.78
2023-11-27T04:41:22.921Z,5.13
2023-11-27T04:43:50.816Z,4.95
2023-11-27T04:46:18.967Z,5.90
2023-11-27T04:48:46.828Z,6.03
2023-11-27T04:51:14.657Z,4.68
2023-11-27T04:53:42.491Z,4.65
2023-11-27T04:56:11.787Z,4.65
2023-11-27T04:58:40.954Z,5.50
2023-11-27T05:01:08.873Z,5.28
2023-11-27T05:03:36.909Z,4.28
2023-11-27T05:06:05.111Z,5.40
2023-11-27T05:08:32.911Z,4.68
2023-11-27T05:11:00.723Z,5.03
2023-11-27T05:13:28.676Z,5.25
2023-11-27T05:15:57.975Z,5.22
2023-11-27T05:18:25.818Z,4.28
2023-11-27T05:20:53.616Z,4.35
2023-11-27T05:23:21.470Z,4.30
2023-11-27T05:25:49.324Z,3.83
2023-11-27T05:28:17.183Z,4.00
2023-11-27T05:30:45.240Z,4.95
2023-11-27T05:33:14.436Z,4.88
2023-11-27T05:35:42.287Z,5.20
2023-11-27T05:38:10.112Z,4.20
2023-11-27T05:40:37.947Z,3.97
2023-11-27T05:43:06.748Z,5.00
2023-11-27T05:45:35.504Z,4.68
2023-11-27T05:48:04.178Z,4.90
2023-11-27T05:50:33.657Z,5.65
2023-11-27T05:53:01.649Z,5.40
2023-11-27T05:55:29.505Z,6.22
2023-11-27T05:57:57.491Z,6.15
2023-11-27T06:00:26.007Z,6.05
2023-11-27T06:02:55.107Z,4.47
2023-11-27T06:05:24.022Z,5.35
2023-11-27T06:07:53.340Z,5.63
2023-11-27T06:10:21.442Z,6.32
2023-11-27T06:12:50.786Z,5.43
2023-11-27T06:15:18.653Z,5.55
2023-11-27T06:17:46.818Z,5.85
2023-11-27T06:20:15.598Z,4.72
2023-11-27T06:22:43.873Z,4.88
2023-11-27T06:25:13.217Z,5.15
2023-11-27T06:27:41.103Z,4.95
2023-11-27T06:30:12.679Z,5.05
2023-11-27T06:32:41.129Z,5.20
2023-11-27T06:35:13.198Z,5.70
2023-11-27T06:37:41.332Z,4.95
2023-11-27T06:40:09.968Z,4.47
2023-11-27T06:42:39.184Z,5.25
2023-11-27T06:45:06.942Z,5.20
2023-11-27T06:47:35.035Z,4.68
2023-11-27T06:50:02.903Z,4.45
2023-11-27T06:52:31.146Z,3.40
2023-11-27T06:54:58.984Z,3.78
2023-11-27T06:57:27.664Z,2.47
2023-11-27T06:59:57.676Z,4.20
2023-11-27T07:02:27.132Z,3.25
2023-11-27T07:04:55.222Z,3.58
2023-11-27T07:07:23.246Z,2.88
2023-11-27T07:09:51.128Z,3.60
2023-11-27T07:12:19.556Z,3.20
2023-11-27T07:14:47.376Z,3.67
2023-11-27T07:17:16.629Z,3.33
2023-11-27T07:19:44.811Z,3.85
2023-11-27T07:22:13.115Z,3.75
2023-11-27T07:24:41.029Z,3.42
2023-11-27T07:27:08.864Z,4.13
2023-11-27T07:29:36.683Z,4.60
2023-11-27T07:32:05.237Z,4.05
2023-11-27T07:34:34.613Z,3.63
2023-11-27T07:37:02.505Z,4.07
2023-11-27T07:39:30.408Z,3.92
2023-11-27T07:41:58.687Z,2.75
2023-11-27T07:44:28.051Z,4.28
2023-11-27T07:46:55.942Z,4.03
2023-11-27T07:49:22.999Z,3.35
2023-11-27T07:51:57.584Z,3.97
2023-11-27T07:54:25.461Z,3.88
2023-11-27T07:56:54.257Z,4.90
2023-11-27T07:59:22.065Z,4.90
2023-11-27T08:01:50.787Z,5.07
2023-11-27T08:04:19.217Z,4.45
2023-11-27T08:06:47.190Z,4.63
2023-11-27T08:09:16.367Z,4.75
2023-11-27T08:11:44.791Z,4.30
2023-11-27T08:14:14.624Z,5.03
2023-11-27T08:16:42.500Z,4.50
2023-11-27T08:19:14.548Z,4.47
2023-11-27T08:21:42.410Z,4.82
2023-11-27T08:24:10.471Z,5.00
2023-11-27T08:26:41.577Z,4.00
2023-11-27T08:29:09.872Z,4.03
2023-11-27T08:31:38.145Z,4.85
2023-11-27T08:34:06.152Z,4.13
2023-11-27T08:36:36.478Z,4.93
2023-11-27T08:39:06.078Z,4.18
2023-11-27T08:41:36.228Z,5.13
2023-11-27T08:44:07.444Z,4.75
2023-11-27T08:46:35.510Z,4.40
2023-11-27T08:49:05.190Z,4.30
2023-11-27T08:51:33.150Z,5.07
2023-11-27T08:54:00.921Z,4.78
2023-11-27T08:56:34.186Z,4.90
2023-11-27T08:59:02.457Z,4.72
2023-11-27T09:01:31.747Z,4.75
2023-11-27T09:03:59.772Z,4.70
2023-11-27T09:06:27.707Z,4.50
2023-11-27T09:08:55.557Z,4.68
2023-11-27T09:11:26.442Z,4.95
2023-11-27T09:13:54.679Z,4.53
2023-11-27T09:16:22.592Z,4.53
2023-11-27T09:18:51.847Z,4.35
2023-11-27T09:21:19.707Z,4.30
2023-11-27T09:23:47.582Z,4.32
2023-11-27T09:26:15.799Z,4.88
2023-11-27T09:28:44.309Z,5.10
2023-11-27T09:31:12.303Z,5.07
2023-11-27T09:33:40.211Z,5.05
2023-11-27T09:36:16.034Z,4.22
2023-11-27T09:38:44.653Z,4.88
2023-11-27T09:41:13.821Z,4.75
2023-11-27T09:43:41.982Z,4.80
2023-11-27T09:46:18.171Z,4.82
2023-11-27T09:48:46.320Z,4.05
2023-11-27T09:51:17.324Z,4.72
2023-11-27T09:53:51.693Z,4.95
2023-11-27T09:56:25.192Z,5.00
2023-11-27T09:58:53.742Z,5.00
2023-11-27T10:01:29.210Z,5.25
2023-11-27T10:04:00.280Z,5.15
2023-11-27T10:06:34.280Z,5.10
2023-11-27T10:09:05.288Z,5.50
2023-11-27T10:11:34.115Z,5.25
2023-11-27T10:14:22.499Z,4.88
2023-11-27T10:16:54.527Z,4.82
2023-11-27T10:19:26.990Z,4.85
2023-11-27T10:21:58.472Z,4.93
2023-11-27T10:24:26.385Z,5.05
2023-11-27T10:26:54.178Z,4.47
2023-11-27T10:29:27.605Z,4.57
2023-11-27T10:31:56.101Z,4.80
2023-11-27T10:34:24.214Z,5.10
2023-11-27T10:36:59.102Z,4.88
2023-11-27T10:39:30.033Z,4.63
2023-11-27T10:41:59.355Z,4.20
2023-11-27T10:44:27.959Z,4.63
2023-11-27T10:46:57.748Z,4.70
2023-11-27T10:49:26.401Z,5.38
2023-11-27T10:51:55.848Z,6.00
2023-11-27T10:54:31.739Z,5.45
2023-11-27T10:57:04.793Z,5.30
2023-11-27T10:59:33.377Z,4.95
2023-11-27T11:02:05.982Z,4.93
2023-11-27T11:04:46.192Z,4.75
2023-11-27T11:07:20.234Z,4.63
2023-11-27T11:09:51.194Z,4.80
2023-11-27T11:12:24.532Z,4.43
2023-11-27T11:14:54.174Z,4.82
2023-11-27T11:17:35.590Z,5.20
2023-11-27T11:20:15.816Z,5.18
2023-11-27T11:22:54.025Z,4.38
2023-11-27T11:25:31.182Z,4.78
2023-11-27T11:28:07.406Z,4.95
2023-11-27T11:30:36.425Z,4.80
2023-11-27T11:33:07.751Z,4.70
2023-11-27T11:38:17.165Z,4.53
2023-11-27T11:40:49.732Z,4.85
2023-11-27T11:43:18.466Z,5.15
2023-11-27T11:45:47.248Z,5.07
2023-11-27T11:48:16.574Z,5.25
2023-11-27T11:50:44.438Z,5.13
2023-11-27T11:53:40.502Z,5.55
2023-11-27T11:56:20.729Z,5.22
2023-11-27T11:58:51.931Z,4.95
2023-11-27T12:01:21.024Z,4.82
2023-11-27T12:03:49.142Z,5.53
2023-11-27T12:06:16.988Z,5.38
2023-11-27T12:08:46.606Z,5.25
2023-11-27T12:11:16.719Z,4.63
2023-11-27T12:13:44.985Z,4.63
2023-11-27T12:16:15.146Z,4.97
2023-11-27T12:18:45.603Z,5.30
2023-11-27T12:21:16.361Z,4.53
2023-11-27T12:23:47.068Z,4.72
2023-11-27T12:26:23.887Z,4.80
2023-11-27T12:28:52.252Z,5.03
2023-11-27T12:31:21.174Z,5.70
2023-11-27T12:33:49.543Z,4.82
2023-11-27T12:36:22.652Z,4.97
2023-11-27T12:38:53.703Z,4.85
2023-11-27T12:41:33.943Z,5.00
2023-11-27T12:44:17.187Z,5.03
2023-11-27T12:46:51.579Z,5.03
2023-11-27T12:49:22.060Z,4.55
2023-11-27T12:51:53.223Z,4.80
2023-11-27T12:54:23.139Z,4.90
2023-11-27T12:56:53.467Z,4.88
2023-11-27T12:59:24.981Z,5.07
2023-11-27T13:01:58.800Z,4.75
2023-11-27T13:04:30.990Z,4.78
2023-11-27T13:06:59.245Z,4.85
2023-11-27T13:09:27.554Z,4.75
2023-11-27T13:11:56.793Z,4.63
2023-11-27T13:14:25.080Z,4.70
2023-11-27T13:16:54.337Z,4.70
2023-11-27T13:19:25.190Z,4.32
2023-11-27T13:21:56.503Z,4.53
2023-11-27T13:24:27.868Z,4.35
2023-11-27T13:26:57.113Z,4.35
2023-11-27T13:29:27.515Z,4.65
2023-11-27T13:31:55.466Z,4.60
2023-11-27T13:34:34.329Z,4.88
2023-11-27T13:37:08.888Z,4.90
2023-11-27T13:39:39.120Z,3.97
2023-11-27T13:42:09.926Z,4.70
2023-11-27T13:44:38.722Z,4.47
2023-11-27T13:47:07.588Z,4.60
2023-11-27T13:49:35.768Z,4.63
2023-11-27T13:54:35.377Z,5.03
2023-11-27T13:57:03.188Z,5.43
2023-11-27T13:59:37.121Z,5.45
2023-11-27T14:02:11.608Z,5.25
2023-11-27T14:04:48.589Z,5.15
2023-11-27T14:07:16.741Z,5.60
2023-11-27T14:09:59.584Z,5.03
2023-11-27T14:12:39.671Z,5.15
2023-11-27T14:15:19.030Z,5.70
2023-11-27T14:17:58.838Z,5.55
2023-11-27T14:20:45.021Z,6.22
2023-11-27T14:23:26.067Z,6.50
2023-11-27T14:26:11.424Z,6.07
2023-11-27T14:28:53.464Z,5.97
2023-11-27T14:31:23.562Z,6.15
2023-11-27T14:33:52.272Z,6.32
2023-11-27T14:36:20.363Z,6.20
2023-11-27T14:38:49.725Z,5.93
2023-11-27T14:41:18.736Z,5.82
2023-11-27T14:43:50.249Z,6.20
2023-11-27T14:46:18.588Z,5.90
2023-11-27T14:48:48.019Z,5.78
2023-11-27T14:51:16.390Z,5.78
2023-11-27T14:53:53.598Z,6.00
2023-11-27T14:56:21.471Z,6.20
2023-11-27T14:58:50.056Z,5.93
2023-11-27T15:01:18.698Z,6.05
2023-11-27T15:03:49.821Z,5.68
2023-11-27T15:08:48.854Z,5.80
2023-11-27T15:11:17.846Z,5.97
2023-11-27T15:13:46.483Z,6.05
2023-11-27T15:16:18.143Z,5.93
2023-11-27T15:18:48.985Z,5.53
2023-11-27T15:21:16.841Z,6.07
2023-11-27T15:23:44.709Z,5.95
2023-11-27T15:26:14.697Z,5.95
2023-11-27T15:28:43.173Z,6.25
2023-11-27T15:31:17.027Z,5.95
2023-11-27T15:33:45.440Z,6.25
2023-11-27T15:36:15.406Z,6.22
2023-11-27T15:38:43.801Z,6.13
2023-11-27T15:41:12.148Z,6.28
2023-11-27T15:43:41.428Z,6.38
2023-11-27T15:46:12.584Z,5.88
2023-11-27T15:51:09.185Z,5.53
2023-11-27T15:53:38.567Z,5.47
2023-11-27T15:56:10.020Z,5.40
2023-11-27T15:58:39.255Z,5.35
2023-11-27T16:01:07.819Z,5.60
2023-11-27T16:03:35.741Z,5.22
2023-11-27T16:06:05.366Z,5.35
2023-11-27T16:08:33.498Z,5.05
2023-11-27T16:11:05.249Z,5.82
2023-11-27T16:13:34.576Z,5.95
2023-11-27T16:16:02.614Z,6.15
2023-11-27T16:18:32.166Z,6.22
2023-11-27T16:21:00.724Z,6.43
2023-11-27T16:23:28.863Z,6.70
2023-11-27T16:25:57.299Z,6.22
2023-11-27T16:28:28.508Z,6.80
2023-11-27T16:30:56.371Z,6.72
2023-11-27T16:33:24.351Z,6.40
2023-11-27T16:35:52.457Z,6.80
2023-11-27T16:38:21.271Z,6.93
2023-11-27T16:40:49.232Z,6.63
2023-11-27T16:43:17.235Z,6.43
2023-11-27T16:45:48.483Z,5.88
2023-11-27T16:48:16.395Z,6.00
2023-11-27T16:50:46.521Z,6.38
2023-11-27T16:53:14.932Z,6.43
2023-11-27T16:55:43.605Z,7.50
2023-11-27T16:58:12.000Z,6.22
2023-11-27T17:00:39.926Z,5.40
2023-11-27T17:03:10.757Z,5.95
2023-11-27T17:05:39.468Z,6.13
2023-11-27T17:08:11.499Z,6.18
2023-11-27T17:10:41.833Z,5.63
2023-11-27T17:13:12.036Z,5.22
2023-11-27T17:15:44.239Z,6.20
2023-11-27T17:18:16.056Z,5.53
2023-11-27T17:20:46.338Z,5.78
2023-11-27T17:23:14.449Z,5.35
2023-11-27T17:25:42.670Z,6.35
2023-11-27T17:28:13.163Z,5.10
2023-11-27T17:30:44.074Z,5.63
2023-11-27T17:33:15.107Z,5.25
2023-11-27T17:35:44.064Z,4.93
2023-11-27T17:38:12.064Z,5.53
2023-11-27T17:40:40.045Z,5.20
2023-11-27T17:43:11.872Z,5.88
2023-11-27T17:45:42.949Z,5.07
2023-11-27T17:48:11.630Z,4.90
2023-11-27T17:50:40.805Z,4.78
2023-11-27T17:53:09.243Z,5.38
2023-11-27T17:55:45.219Z,4.63
2023-11-27T17:58:16.621Z,4.57
2023-11-27T18:00:47.430Z,4.97
2023-11-27T18:03:15.732Z,4.95
2023-11-27T18:05:45.893Z,4.85
2023-11-27T18:08:14.068Z,4.75
2023-11-27T18:10:42.107Z,4.43
2023-11-27T18:13:10.071Z,4.85
2023-11-27T18:15:38.128Z,4.80
2023-11-27T18:18:07.398Z,4.70
2023-11-27T18:20:35.587Z,4.57
2023-11-27T18:23:04.826Z,4.70
2023-11-27T18:25:31.903Z,4.45
2023-11-27T18:27:59.741Z,4.53
2023-11-27T18:30:29.027Z,4.65
2023-11-27T18:32:57.035Z,4.63
2023-11-27T18:35:24.930Z,4.50
2023-11-27T18:37:52.738Z,5.60
2023-11-27T18:40:22.780Z,5.07
2023-11-27T18:42:52.392Z,4.75
2023-11-27T18:45:24.494Z,4.70
2023-11-27T18:47:53.078Z,4.95
2023-11-27T18:50:21.377Z,4.80
2023-11-27T18:52:49.774Z,4.75
2023-11-27T18:55:17.996Z,4.95
2023-11-27T18:57:51.140Z,5.80
2023-11-27T19:00:22.558Z,5.20
2023-11-27T19:02:50.663Z,5.03
2023-11-27T19:05:18.608Z,4.93
2023-11-27T19:07:47.705Z,4.45
2023-11-27T19:10:15.677Z,4.50
2023-11-27T19:12:43.548Z,4.80
2023-11-27T19:15:13.690Z,4.88
2023-11-27T19:17:41.606Z,4.60
2023-11-27T19:20:12.217Z,5.00
2023-11-27T19:22:40.653Z,4.80
2023-11-27T19:25:11.635Z,5.00
2023-11-27T19:27:40.348Z,4.82
2023-11-27T19:30:09.676Z,4.63
2023-11-27T19:32:40.628Z,4.60
2023-11-27T19:35:11.056Z,5.05
2023-11-27T19:37:39.191Z,5.18
2023-11-27T19:40:09.388Z,5.47
2023-11-27T19:42:37.420Z,5.35
2023-11-27T19:45:09.396Z,5.65
2023-11-27T19:47:37.647Z,5.60
2023-11-27T19:50:10.498Z,5.85
2023-11-27T19:52:38.638Z,6.22
2023-11-27T19:55:07.746Z,6.22
2023-11-27T19:57:35.781Z,6.38
2023-11-27T20:00:04.896Z,6.32
2023-11-27T20:02:37.496Z,6.55
2023-11-27T20:05:08.048Z,6.93
2023-11-27T20:07:37.014Z,7.88
2023-11-27T20:10:06.128Z,7.65
2023-11-27T20:12:34.073Z,7.45
2023-11-27T20:15:01.913Z,7.13
2023-11-27T20:17:29.855Z,7.18
2023-11-27T20:19:57.810Z,7.55
2023-11-27T20:22:27.038Z,7.50
2023-11-27T20:24:54.899Z,7.93
2023-11-27T20:27:23.217Z,6.60
2023-11-27T20:29:51.067Z,7.13
2023-11-27T20:32:18.934Z,6.57
2023-11-27T20:34:47.236Z,6.70
2023-11-27T20:37:15.465Z,6.30
2023-11-27T20:39:46.196Z,6.25
2023-11-27T20:42:14.531Z,6.28
2023-11-27T20:44:48.270Z,6.70
2023-11-27T20:47:22.136Z,6.38
2023-11-27T20:49:51.793Z,6.50
2023-11-27T20:52:21.872Z,6.88
2023-11-27T20:54:51.809Z,6.53
2023-11-27T20:57:19.629Z,6.63
2023-11-27T20:59:48.202Z,6.78
2023-11-27T21:02:17.109Z,6.85
2023-11-27T21:04:45.193Z,7.32
2023-11-27T21:07:13.167Z,7.03
2023-11-27T21:09:41.028Z,6.82
2023-11-27T21:12:11.932Z,6.80
2023-11-27T21:14:40.530Z,6.95
2023-11-27T21:17:08.525Z,6.10
2023-11-27T21:19:36.462Z,5.55
2023-11-27T21:22:04.915Z,5.82
2023-11-27T21:24:32.752Z,5.50
2023-11-27T21:27:03.954Z,5.63
2023-11-27T21:29:36.121Z,5.82
2023-11-27T21:32:04.267Z,5.45
2023-11-27T21:34:32.113Z,5.47
2023-11-27T21:37:00.010Z,5.38
2023-11-27T21:39:27.842Z,5.88
2023-11-27T21:41:55.736Z,5.70
2023-11-27T21:44:23.712Z,5.57
2023-11-27T21:46:52.973Z,5.68
2023-11-27T21:49:20.967Z,5.72
2023-11-27T21:51:48.933Z,6.18
2023-11-27T21:54:17.168Z,5.95
2023-11-27T21:56:45.310Z,5.60
2023-11-27T21:59:13.140Z,5.18
2023-11-27T22:01:41.879Z,5.50
2023-11-27T22:04:15.479Z,5.53
2023-11-27T22:06:45.051Z,4.93
2023-11-27T22:09:13.258Z,5.10
2023-11-27T22:11:41.338Z,5.53
2023-11-27T22:14:09.238Z,5.43
2023-11-27T22:16:37.186Z,5.22
2023-11-27T22:19:05.105Z,5.72
2023-11-27T22:21:35.179Z,5.35
2023-11-27T22:24:03.133Z,5.47
2023-11-27T22:26:30.970Z,5.93
2023-11-27T22:28:58.795Z,5.80
2023-11-27T22:31:26.713Z,5.25
2023-11-27T22:33:54.588Z,5.20
2023-11-27T22:36:22.560Z,5.00
2023-11-27T22:38:51.733Z,4.30
2023-11-27T22:41:19.597Z,4.63
2023-11-27T22:43:47.478Z,4.30
2023-11-27T22:46:15.367Z,4.63
2023-11-27T22:48:44.641Z,4.03
2023-11-27T22:51:12.557Z,4.07
2023-11-27T22:53:41.116Z,4.38
2023-11-27T22:56:17.898Z,3.95
2023-11-27T22:58:45.957Z,4.32
2023-11-27T23:01:14.374Z,4.15
2023-11-27T23:03:42.341Z,4.40
2023-11-27T23:06:22.450Z,4.32
2023-11-27T23:08:57.198Z,4.28
2023-11-27T23:11:26.485Z,4.45
2023-11-27T23:13:54.429Z,4.45
2023-11-27T23:16:22.365Z,4.13
2023-11-27T23:18:50.257Z,4.00
2023-11-27T23:21:18.109Z,4.40
2023-11-27T23:23:46.000Z,4.18
2023-11-27T23:26:13.948Z,4.65
2023-11-27T23:28:43.307Z,4.00
2023-11-27T23:31:11.455Z,4.65
2023-11-27T23:33:39.505Z,4.63
2023-11-27T23:36:09.594Z,5.32
2023-11-27T23:38:37.446Z,5.18
2023-11-27T23:41:05.653Z,5.00
2023-11-27T23:43:33.618Z,5.47
2023-11-27T23:46:02.872Z,5.55
2023-11-27T23:48:30.738Z,5.53
2023-11-27T23:50:58.555Z,5.30
2023-11-27T23:53:26.351Z,5.32
2023-11-27T23:55:54.340Z,5.20
2023-11-27T23:58:22.314Z,5.72
